sensor_id;sensor_type;location;lat;lon;timestamp;pressure;altitude;pressure_sealevel;temperature
78859;BMP280;68210;52.032;4.634;2023-12-20T00:00:38;101408.91;;;8.28
78859;BMP280;68210;52.032;4.634;2023-12-20T00:02:38;101409.88;;;8.32
78859;BMP280;68210;52.032;4.634;2023-12-20T00:04:39;101409.06;;;8.40
78859;BMP280;68210;52.032;4.634;2023-12-20T00:06:39;101404.97;;;8.34
78859;BMP280;68210;52.032;4.634;2023-12-20T00:08:39;101405.88;;;8.38
78859;BMP280;68210;52.032;4.634;2023-12-20T00:10:40;101404.00;;;8.30
78859;BMP280;68210;52.032;4.634;2023-12-20T00:12:40;101397.31;;;8.36
78859;BMP280;68210;52.032;4.634;2023-12-20T00:14:41;101403.97;;;8.47
78859;BMP280;68210;52.032;4.634;2023-12-20T00:16:41;101403.16;;;8.46
78859;BMP280;68210;52.032;4.634;2023-12-20T00:18:41;101404.91;;;8.50
78859;BMP280;68210;52.032;4.634;2023-12-20T00:20:42;101407.78;;;8.46
78859;BMP280;68210;52.032;4.634;2023-12-20T00:22:42;101413.06;;;8.25
78859;BMP280;68210;52.032;4.634;2023-12-20T00:24:42;101407.00;;;8.37
78859;BMP280;68210;52.032;4.634;2023-12-20T00:26:43;101402.09;;;8.22
78859;BMP280;68210;52.032;4.634;2023-12-20T00:28:43;101400.50;;;8.38
78859;BMP280;68210;52.032;4.634;2023-12-20T00:30:44;101403.97;;;8.47
78859;BMP280;68210;52.032;4.634;2023-12-20T00:32:44;101394.59;;;8.36
78859;BMP280;68210;52.032;4.634;2023-12-20T00:34:46;101410.66;;;8.41
78859;BMP280;68210;52.032;4.634;2023-12-20T00:36:47;101411.28;;;8.38
78859;BMP280;68210;52.032;4.634;2023-12-20T00:38:47;101414.44;;;8.56
78859;BMP280;68210;52.032;4.634;2023-12-20T00:40:48;101398.56;;;8.55
78859;BMP280;68210;52.032;4.634;2023-12-20T00:42:49;101399.66;;;8.54
78859;BMP280;68210;52.032;4.634;2023-12-20T00:44:50;101396.47;;;8.60
78859;BMP280;68210;52.032;4.634;2023-12-20T00:46:50;101401.88;;;8.52
78859;BMP280;68210;52.032;4.634;2023-12-20T00:48:51;101405.69;;;8.59
78859;BMP280;68210;52.032;4.634;2023-12-20T00:50:51;101402.69;;;8.52
78859;BMP280;68210;52.032;4.634;2023-12-20T00:52:52;101413.34;;;8.57
78859;BMP280;68210;52.032;4.634;2023-12-20T00:54:52;101408.88;;;8.61
78859;BMP280;68210;52.032;4.634;2023-12-20T00:56:53;101403.94;;;8.63
78859;BMP280;68210;52.032;4.634;2023-12-20T00:58:53;101403.28;;;8.66
78859;BMP280;68210;52.032;4.634;2023-12-20T01:00:53;101403.44;;;8.70
78859;BMP280;68210;52.032;4.634;2023-12-20T01:02:53;101391.31;;;8.76
78859;BMP280;68210;52.032;4.634;2023-12-20T01:04:54;101398.69;;;8.67
78859;BMP280;68210;52.032;4.634;2023-12-20T01:06:54;101391.31;;;8.76
78859;BMP280;68210;52.032;4.634;2023-12-20T01:08:55;101389.09;;;8.78
78859;BMP280;68210;52.032;4.634;2023-12-20T01:10:55;101394.22;;;8.62
78859;BMP280;68210;52.032;4.634;2023-12-20T01:12:55;101398.03;;;8.70
78859;BMP280;68210;52.032;4.634;2023-12-20T01:14:55;101400.69;;;8.78
78859;BMP280;68210;52.032;4.634;2023-12-20T01:16:56;101400.22;;;8.84
78859;BMP280;68210;52.032;4.634;2023-12-20T01:18:56;101407.53;;;8.76
78859;BMP280;68210;52.032;4.634;2023-12-20T01:21:01;101410.91;;;8.64
78859;BMP280;68210;52.032;4.634;2023-12-20T01:23:03;101412.22;;;8.58
78859;BMP280;68210;52.032;4.634;2023-12-20T01:25:04;101406.47;;;8.68
78859;BMP280;68210;52.032;4.634;2023-12-20T01:27:04;101408.69;;;8.66
78859;BMP280;68210;52.032;4.634;2023-12-20T01:29:04;101410.59;;;8.74
78859;BMP280;68210;52.032;4.634;2023-12-20T01:31:05;101405.50;;;8.64
78859;BMP280;68210;52.032;4.634;2023-12-20T01:33:05;101414.25;;;8.70
78859;BMP280;68210;52.032;4.634;2023-12-20T01:35:06;101412.97;;;8.67
78859;BMP280;68210;52.032;4.634;2023-12-20T01:37:06;101402.91;;;8.76
78859;BMP280;68210;52.032;4.634;2023-12-20T01:39:06;101392.63;;;8.70
78859;BMP280;68210;52.032;4.634;2023-12-20T01:41:07;101394.19;;;8.79
78859;BMP280;68210;52.032;4.634;2023-12-20T01:43:08;101396.09;;;8.78
78859;BMP280;68210;52.032;4.634;2023-12-20T01:45:08;101403.91;;;8.72
78859;BMP280;68210;52.032;4.634;2023-12-20T01:47:09;101391.31;;;8.76
78859;BMP280;68210;52.032;4.634;2023-12-20T01:49:09;101395.94;;;8.75
78859;BMP280;68210;52.032;4.634;2023-12-20T01:51:10;101390.38;;;8.80
78859;BMP280;68210;52.032;4.634;2023-12-20T01:53:12;101395.00;;;8.71
78859;BMP280;68210;52.032;4.634;2023-12-20T01:55:13;101388.97;;;8.74
78859;BMP280;68210;52.032;4.634;2023-12-20T01:57:15;101385.13;;;8.75
78859;BMP280;68210;52.032;4.634;2023-12-20T01:59:17;101387.53;;;8.77
78859;BMP280;68210;52.032;4.634;2023-12-20T02:01:18;101381.66;;;8.66
78859;BMP280;68210;52.032;4.634;2023-12-20T02:03:18;101380.06;;;8.74
78859;BMP280;68210;52.032;4.634;2023-12-20T02:05:19;101379.72;;;8.75
78859;BMP280;68210;52.032;4.634;2023-12-20T02:07:20;101374.66;;;8.65
78859;BMP280;68210;52.032;4.634;2023-12-20T02:09:22;101381.22;;;8.56
78859;BMP280;68210;52.032;4.634;2023-12-20T02:11:22;101379.72;;;8.75
78859;BMP280;68210;52.032;4.634;2023-12-20T02:13:23;101388.03;;;8.62
78859;BMP280;68210;52.032;4.634;2023-12-20T02:15:23;101375.47;;;8.66
78859;BMP280;68210;52.032;4.634;2023-12-20T02:17:24;101373.41;;;8.54
78859;BMP280;68210;52.032;4.634;2023-12-20T02:19:24;101400.13;;;8.64
78859;BMP280;68210;52.032;4.634;2023-12-20T02:21:25;101397.13;;;8.57
78859;BMP280;68210;52.032;4.634;2023-12-20T02:23:25;101378.78;;;8.71
78859;BMP280;68210;52.032;4.634;2023-12-20T02:25:26;101381.94;;;8.73
78859;BMP280;68210;52.032;4.634;2023-12-20T02:27:27;101383.19;;;8.84
78859;BMP280;68210;52.032;4.634;2023-12-20T02:29:27;101391.28;;;8.84
78859;BMP280;68210;52.032;4.634;2023-12-20T02:31:28;101391.78;;;8.86
78859;BMP280;68210;52.032;4.634;2023-12-20T02:33:28;101374.78;;;8.77
78859;BMP280;68210;52.032;4.634;2023-12-20T02:35:28;101371.63;;;8.75
78859;BMP280;68210;52.032;4.634;2023-12-20T02:37:29;101372.75;;;8.74
78859;BMP280;68210;52.032;4.634;2023-12-20T02:39:30;101374.81;;;8.69
78859;BMP280;68210;52.032;4.634;2023-12-20T02:41:30;101374.66;;;8.65
78859;BMP280;68210;52.032;4.634;2023-12-20T02:43:30;101368.59;;;8.77
78859;BMP280;68210;52.032;4.634;2023-12-20T02:45:31;101359.09;;;8.62
78859;BMP280;68210;52.032;4.634;2023-12-20T02:47:31;101354.50;;;8.63
78859;BMP280;68210;52.032;4.634;2023-12-20T02:49:31;101368.31;;;8.61
78859;BMP280;68210;52.032;4.634;2023-12-20T02:51:32;101351.63;;;8.59
78859;BMP280;68210;52.032;4.634;2023-12-20T02:53:32;101347.94;;;8.72
78859;BMP280;68210;52.032;4.634;2023-12-20T02:55:32;101342.06;;;8.70
78859;BMP280;68210;52.032;4.634;2023-12-20T02:57:33;101336.81;;;8.65
78859;BMP280;68210;52.032;4.634;2023-12-20T02:59:36;101346.72;;;8.61
78859;BMP280;68210;52.032;4.634;2023-12-20T03:01:42;101351.94;;;8.66
78859;BMP280;68210;52.032;4.634;2023-12-20T03:03:42;101347.28;;;8.75
78859;BMP280;68210;52.032;4.634;2023-12-20T03:05:43;101343.81;;;8.66
78859;BMP280;68210;52.032;4.634;2023-12-20T03:07:43;101348.94;;;8.59
78859;BMP280;68210;52.032;4.634;2023-12-20T03:09:44;101356.69;;;8.69
78859;BMP280;68210;52.032;4.634;2023-12-20T03:11:44;101358.88;;;8.76
78859;BMP280;68210;52.032;4.634;2023-12-20T03:13:45;101359.22;;;8.74
78859;BMP280;68210;52.032;4.634;2023-12-20T03:15:45;101359.41;;;8.69
78859;BMP280;68210;52.032;4.634;2023-12-20T03:17:46;101358.75;;;8.72
78859;BMP280;68210;52.032;4.634;2023-12-20T03:19:46;101358.41;;;8.82
78859;BMP280;68210;52.032;4.634;2023-12-20T03:21:46;101346.63;;;8.78
78859;BMP280;68210;52.032;4.634;2023-12-20T03:23:47;101361.16;;;8.74
78859;BMP280;68210;52.032;4.634;2023-12-20T03:25:48;101350.19;;;8.62
78859;BMP280;68210;52.032;4.634;2023-12-20T03:27:48;101357.81;;;8.68
78859;BMP280;68210;52.032;4.634;2023-12-20T03:29:48;101369.72;;;8.67
78859;BMP280;68210;52.032;4.634;2023-12-20T03:31:49;101361.75;;;8.71
78859;BMP280;68210;52.032;4.634;2023-12-20T03:33:49;101368.13;;;8.75
78859;BMP280;68210;52.032;4.634;2023-12-20T03:35:51;101360.66;;;8.72
78859;BMP280;68210;52.032;4.634;2023-12-20T03:37:51;101364.28;;;8.76
78859;BMP280;68210;52.032;4.634;2023-12-20T03:39:51;101362.56;;;8.71
78859;BMP280;68210;52.032;4.634;2023-12-20T03:41:52;101361.56;;;8.84
78859;BMP280;68210;52.032;4.634;2023-12-20T03:43:52;101357.31;;;8.75
78859;BMP280;68210;52.032;4.634;2023-12-20T03:45:52;101351.88;;;8.83
78859;BMP280;68210;52.032;4.634;2023-12-20T03:47:53;101344.91;;;8.74
78859;BMP280;68210;52.032;4.634;2023-12-20T03:49:56;101342.84;;;8.79
78859;BMP280;68210;52.032;4.634;2023-12-20T03:51:57;101339.53;;;8.65
78859;BMP280;68210;52.032;4.634;2023-12-20T03:53:57;101340.16;;;8.62
78859;BMP280;68210;52.032;4.634;2023-12-20T03:55:57;101351.19;;;8.57
78859;BMP280;68210;52.032;4.634;2023-12-20T03:57:58;101333.38;;;8.56
78859;BMP280;68210;52.032;4.634;2023-12-20T03:59:58;101323.69;;;8.55
78859;BMP280;68210;52.032;4.634;2023-12-20T04:01:59;101334.00;;;8.53
78859;BMP280;68210;52.032;4.634;2023-12-20T04:03:59;101336.53;;;8.58
78859;BMP280;68210;52.032;4.634;2023-12-20T04:06:00;101336.38;;;8.63
78859;BMP280;68210;52.032;4.634;2023-12-20T04:08:01;101326.22;;;8.60
78859;BMP280;68210;52.032;4.634;2023-12-20T04:10:02;101333.84;;;8.58
78859;BMP280;68210;52.032;4.634;2023-12-20T04:12:04;101338.78;;;8.56
78859;BMP280;68210;52.032;4.634;2023-12-20T04:14:05;101343.06;;;8.49
78859;BMP280;68210;52.032;4.634;2023-12-20T04:16:07;101346.06;;;8.64
78859;BMP280;68210;52.032;4.634;2023-12-20T04:18:07;101339.72;;;8.60
78859;BMP280;68210;52.032;4.634;2023-12-20T04:20:08;101341.66;;;8.51
78859;BMP280;68210;52.032;4.634;2023-12-20T04:22:08;101336.84;;;8.57
78859;BMP280;68210;52.032;4.634;2023-12-20T04:24:09;101345.59;;;8.54
78859;BMP280;68210;52.032;4.634;2023-12-20T04:26:10;101335.59;;;8.63
78859;BMP280;68210;52.032;4.634;2023-12-20T04:28:10;101337.63;;;8.66
78859;BMP280;68210;52.032;4.634;2023-12-20T04:30:11;101329.25;;;8.50
78859;BMP280;68210;52.032;4.634;2023-12-20T04:32:11;101344.34;;;8.51
78859;BMP280;68210;52.032;4.634;2023-12-20T04:34:12;101337.03;;;8.52
78859;BMP280;68210;52.032;4.634;2023-12-20T04:36:12;101330.66;;;8.56
78859;BMP280;68210;52.032;4.634;2023-12-20T04:38:13;101327.50;;;8.46
78859;BMP280;68210;52.032;4.634;2023-12-20T04:40:13;101329.91;;;8.48
78859;BMP280;68210;52.032;4.634;2023-12-20T04:42:14;101323.72;;;8.47
78859;BMP280;68210;52.032;4.634;2023-12-20T04:44:14;101319.59;;;8.33
78859;BMP280;68210;52.032;4.634;2023-12-20T04:46:14;101316.56;;;8.43
78859;BMP280;68210;52.032;4.634;2023-12-20T04:48:14;101310.03;;;8.44
78859;BMP280;68210;52.032;4.634;2023-12-20T04:50:15;101321.97;;;8.43
78859;BMP280;68210;52.032;4.634;2023-12-20T04:52:31;101317.22;;;8.40
78859;BMP280;68210;52.032;4.634;2023-12-20T04:54:31;101305.94;;;8.38
78859;BMP280;68210;52.032;4.634;2023-12-20T04:56:31;101314.19;;;8.41
78859;BMP280;68210;52.032;4.634;2023-12-20T04:58:32;101315.78;;;8.42
78859;BMP280;68210;52.032;4.634;2023-12-20T05:00:32;101319.13;;;8.39
78859;BMP280;68210;52.032;4.634;2023-12-20T05:02:32;101320.06;;;8.43
78859;BMP280;68210;52.032;4.634;2023-12-20T05:04:33;101316.88;;;8.41
78859;BMP280;68210;52.032;4.634;2023-12-20T05:06:33;101318.59;;;8.54
78859;BMP280;68210;52.032;4.634;2023-12-20T05:08:33;101313.34;;;8.49
78859;BMP280;68210;52.032;4.634;2023-12-20T05:10:34;101325.31;;;8.40
78859;BMP280;68210;52.032;4.634;2023-12-20T05:12:35;101324.03;;;8.46
78859;BMP280;68210;52.032;4.634;2023-12-20T05:14:35;101318.00;;;8.40
78859;BMP280;68210;52.032;4.634;2023-12-20T05:16:36;101322.91;;;8.47
78859;BMP280;68210;52.032;4.634;2023-12-20T05:18:36;101313.69;;;8.48
78859;BMP280;68210;52.032;4.634;2023-12-20T05:20:36;101317.50;;;8.47
78859;BMP280;68210;52.032;4.634;2023-12-20T05:22:37;101331.31;;;8.53
78859;BMP280;68210;52.032;4.634;2023-12-20T05:24:37;101327.50;;;8.46
78859;BMP280;68210;52.032;4.634;2023-12-20T05:26:38;101328.59;;;8.53
78859;BMP280;68210;52.032;4.634;2023-12-20T05:28:38;101326.03;;;8.57
78859;BMP280;68210;52.032;4.634;2023-12-20T05:30:38;101318.59;;;8.54
78859;BMP280;68210;52.032;4.634;2023-12-20T05:32:38;101321.75;;;8.56
78859;BMP280;68210;52.032;4.634;2023-12-20T05:34:39;101318.44;;;8.50
78859;BMP280;68210;52.032;4.634;2023-12-20T05:36:39;101323.34;;;8.57
78859;BMP280;68210;52.032;4.634;2023-12-20T05:38:39;101318.09;;;8.60
78859;BMP280;68210;52.032;4.634;2023-12-20T05:40:40;101320.59;;;8.65
78859;BMP280;68210;52.032;4.634;2023-12-20T05:42:40;101319.69;;;8.61
78859;BMP280;68210;52.032;4.634;2023-12-20T05:44:40;101317.16;;;8.56
78859;BMP280;68210;52.032;4.634;2023-12-20T05:46:41;101313.53;;;8.52
78859;BMP280;68210;52.032;4.634;2023-12-20T05:48:41;101311.41;;;8.66
78859;BMP280;68210;52.032;4.634;2023-12-20T05:50:42;101315.38;;;8.69
78859;BMP280;68210;52.032;4.634;2023-12-20T05:52:42;101306.47;;;8.60
78859;BMP280;68210;52.032;4.634;2023-12-20T05:54:42;101315.19;;;8.65
78859;BMP280;68210;52.032;4.634;2023-12-20T05:56:44;101309.66;;;8.62
78859;BMP280;68210;52.032;4.634;2023-12-20T05:58:45;101307.28;;;8.60
78859;BMP280;68210;52.032;4.634;2023-12-20T06:00:45;101314.56;;;8.68
78859;BMP280;68210;52.032;4.634;2023-12-20T06:02:45;101311.00;;;8.76
78859;BMP280;68210;52.032;4.634;2023-12-20T06:04:46;101315.50;;;8.72
78859;BMP280;68210;52.032;4.634;2023-12-20T06:06:46;101307.38;;;8.72
78859;BMP280;68210;52.032;4.634;2023-12-20T06:08:46;101307.34;;;8.80
78859;BMP280;68210;52.032;4.634;2023-12-20T06:10:47;101309.88;;;8.85
78859;BMP280;68210;52.032;4.634;2023-12-20T06:12:47;101299.84;;;8.86
78859;BMP280;68210;52.032;4.634;2023-12-20T06:14:50;101317.00;;;8.90
78859;BMP280;68210;52.032;4.634;2023-12-20T06:16:50;101302.88;;;8.84
78859;BMP280;68210;52.032;4.634;2023-12-20T06:18:51;101310.00;;;8.89
78859;BMP280;68210;52.032;4.634;2023-12-20T06:20:51;101313.97;;;8.91
78859;BMP280;68210;52.032;4.634;2023-12-20T06:22:52;101317.31;;;8.88
78859;BMP280;68210;52.032;4.634;2023-12-20T06:24:52;101316.06;;;8.86
78859;BMP280;68210;52.032;4.634;2023-12-20T06:26:52;101328.94;;;8.89
78859;BMP280;68210;52.032;4.634;2023-12-20T06:28:52;101315.09;;;8.90
78859;BMP280;68210;52.032;4.634;2023-12-20T06:30:53;101314.09;;;8.95
78859;BMP280;68210;52.032;4.634;2023-12-20T06:32:54;101309.81;;;8.94
78859;BMP280;68210;52.032;4.634;2023-12-20T06:34:57;101317.94;;;8.94
78859;BMP280;68210;52.032;4.634;2023-12-20T06:36:57;101311.22;;;9.00
78859;BMP280;68210;52.032;4.634;2023-12-20T06:38:58;101309.91;;;9.06
78859;BMP280;68210;52.032;4.634;2023-12-20T06:40:58;101296.78;;;8.96
78859;BMP280;68210;52.032;4.634;2023-12-20T06:42:59;101305.81;;;9.00
78859;BMP280;68210;52.032;4.634;2023-12-20T06:45:00;101306.75;;;9.04
78859;BMP280;68210;52.032;4.634;2023-12-20T06:47:00;101313.06;;;9.08
78859;BMP280;68210;52.032;4.634;2023-12-20T06:49:01;101300.41;;;9.00
78859;BMP280;68210;52.032;4.634;2023-12-20T06:51:01;101311.22;;;9.00
78859;BMP280;68210;52.032;4.634;2023-12-20T06:53:04;101297.25;;;8.98
78859;BMP280;68210;52.032;4.634;2023-12-20T06:55:07;101305.66;;;8.96
78859;BMP280;68210;52.032;4.634;2023-12-20T06:57:07;101297.56;;;8.96
78859;BMP280;68210;52.032;4.634;2023-12-20T06:59:08;101297.25;;;8.98
78859;BMP280;68210;52.032;4.634;2023-12-20T07:01:12;101293.41;;;8.99
78859;BMP280;68210;52.032;4.634;2023-12-20T07:03:13;101291.38;;;8.96
78859;BMP280;68210;52.032;4.634;2023-12-20T07:05:16;101293.59;;;8.94
78859;BMP280;68210;52.032;4.634;2023-12-20T07:07:16;101296.72;;;9.04
78859;BMP280;68210;52.032;4.634;2023-12-20T07:09:17;101288.47;;;9.01
78859;BMP280;68210;52.032;4.634;2023-12-20T07:11:17;101288.00;;;8.99
78859;BMP280;68210;52.032;4.634;2023-12-20T07:13:18;101290.72;;;8.99
78859;BMP280;68210;52.032;4.634;2023-12-20T07:15:18;101278.50;;;8.93
78859;BMP280;68210;52.032;4.634;2023-12-20T07:17:18;101286.13;;;8.91
78859;BMP280;68210;52.032;4.634;2023-12-20T07:19:19;101273.94;;;8.85
78859;BMP280;68210;52.032;4.634;2023-12-20T07:21:19;101261.84;;;8.82
78859;BMP280;68210;52.032;4.634;2023-12-20T07:23:19;101269.91;;;8.91
78859;BMP280;68210;52.032;4.634;2023-12-20T07:25:20;101258.81;;;8.84
78859;BMP280;68210;52.032;4.634;2023-12-20T07:27:21;101267.41;;;8.86
78859;BMP280;68210;52.032;4.634;2023-12-20T07:29:21;101279.53;;;8.80
78859;BMP280;68210;52.032;4.634;2023-12-20T07:31:21;101266.31;;;8.78
78859;BMP280;68210;52.032;4.634;2023-12-20T07:33:22;101270.56;;;8.88
78859;BMP280;68210;52.032;4.634;2023-12-20T07:35:23;101278.88;;;8.83
78859;BMP280;68210;52.032;4.634;2023-12-20T07:37:23;101281.75;;;8.78
78859;BMP280;68210;52.032;4.634;2023-12-20T07:39:24;101290.19;;;8.77
78859;BMP280;68210;52.032;4.634;2023-12-20T07:41:24;101291.00;;;8.77
78859;BMP280;68210;52.032;4.634;2023-12-20T07:43:24;101288.75;;;8.79
78859;BMP280;68210;52.032;4.634;2023-12-20T07:45:25;101297.41;;;8.64
78859;BMP280;68210;52.032;4.634;2023-12-20T07:47:25;101293.22;;;8.75
78859;BMP280;68210;52.032;4.634;2023-12-20T07:49:25;101290.81;;;8.82
78859;BMP280;68210;52.032;4.634;2023-12-20T07:51:26;101299.41;;;8.76
78859;BMP280;68210;52.032;4.634;2023-12-20T07:53:26;101290.25;;;8.68
78859;BMP280;68210;52.032;4.634;2023-12-20T07:55:27;101293.09;;;8.72
78859;BMP280;68210;52.032;4.634;2023-12-20T07:57:30;101299.94;;;8.69
78859;BMP280;68210;52.032;4.634;2023-12-20T07:59:30;101298.34;;;8.68
78859;BMP280;68210;52.032;4.634;2023-12-20T08:01:31;101306.91;;;8.70
78859;BMP280;68210;52.032;4.634;2023-12-20T08:03:31;101311.97;;;8.80
78859;BMP280;68210;52.032;4.634;2023-12-20T08:05:31;101304.22;;;8.99
78859;BMP280;68210;52.032;4.634;2023-12-20T08:07:32;101315.22;;;8.94
78859;BMP280;68210;52.032;4.634;2023-12-20T08:09:32;101298.41;;;8.88
78859;BMP280;68210;52.032;4.634;2023-12-20T08:11:33;101307.13;;;8.94
78859;BMP280;68210;52.032;4.634;2023-12-20T08:13:34;101303.63;;;8.93
78859;BMP280;68210;52.032;4.634;2023-12-20T08:15:34;101313.25;;;9.11
78859;BMP280;68210;52.032;4.634;2023-12-20T08:17:34;101309.78;;;9.02
78859;BMP280;68210;52.032;4.634;2023-12-20T08:19:35;101308.66;;;9.03
78859;BMP280;68210;52.032;4.634;2023-12-20T08:21:35;101318.50;;;9.08
78859;BMP280;68210;52.032;4.634;2023-12-20T08:23:35;101318.31;;;9.12
78859;BMP280;68210;52.032;4.634;2023-12-20T08:25:36;101309.28;;;9.09
78859;BMP280;68210;52.032;4.634;2023-12-20T08:27:39;101317.16;;;9.13
78859;BMP280;68210;52.032;4.634;2023-12-20T08:29:40;101321.41;;;9.23
78859;BMP280;68210;52.032;4.634;2023-12-20T08:31:40;101319.69;;;9.18
78859;BMP280;68210;52.032;4.634;2023-12-20T08:33:41;101318.06;;;9.26
78859;BMP280;68210;52.032;4.634;2023-12-20T08:35:41;101313.31;;;9.23
78859;BMP280;68210;52.032;4.634;2023-12-20T08:37:41;101314.88;;;9.24
78859;BMP280;68210;52.032;4.634;2023-12-20T08:39:42;101319.69;;;9.18
78859;BMP280;68210;52.032;4.634;2023-12-20T08:41:44;101319.97;;;9.25
78859;BMP280;68210;52.032;4.634;2023-12-20T08:43:44;101313.84;;;9.16
78859;BMP280;68210;52.032;4.634;2023-12-20T08:45:44;101325.88;;;9.19
78859;BMP280;68210;52.032;4.634;2023-12-20T08:47:46;101318.59;;;9.19
78859;BMP280;68210;52.032;4.634;2023-12-20T08:49:46;101314.28;;;9.18
78859;BMP280;68210;52.032;4.634;2023-12-20T08:51:47;101317.53;;;9.32
78859;BMP280;68210;52.032;4.634;2023-12-20T08:53:48;101313.38;;;9.35
78859;BMP280;68210;52.032;4.634;2023-12-20T08:55:49;101311.00;;;9.33
78859;BMP280;68210;52.032;4.634;2023-12-20T08:57:49;101308.31;;;9.33
78859;BMP280;68210;52.032;4.634;2023-12-20T08:59:51;101298.28;;;9.34
78859;BMP280;68210;52.032;4.634;2023-12-20T09:01:51;101297.28;;;9.38
78859;BMP280;68210;52.032;4.634;2023-12-20T09:03:54;101300.84;;;9.30
78859;BMP280;68210;52.032;4.634;2023-12-20T09:05:55;101299.78;;;9.43
78859;BMP280;68210;52.032;4.634;2023-12-20T09:07:55;101288.94;;;9.43
78859;BMP280;68210;52.032;4.634;2023-12-20T09:09:56;101302.97;;;9.45
78859;BMP280;68210;52.032;4.634;2023-12-20T09:11:56;101296.44;;;9.46
78859;BMP280;68210;52.032;4.634;2023-12-20T09:13:58;101305.34;;;9.46
78859;BMP280;68210;52.032;4.634;2023-12-20T09:15:58;101302.34;;;9.39
78859;BMP280;68210;52.032;4.634;2023-12-20T09:17:58;101284.47;;;9.47
78859;BMP280;68210;52.032;4.634;2023-12-20T09:19:59;101290.69;;;9.47
78859;BMP280;68210;52.032;4.634;2023-12-20T09:22:00;101294.66;;;9.50
78859;BMP280;68210;52.032;4.634;2023-12-20T09:24:02;101293.84;;;9.49
78859;BMP280;68210;52.032;4.634;2023-12-20T09:26:03;101295.34;;;9.59
78859;BMP280;68210;52.032;4.634;2023-12-20T09:28:04;101298.06;;;9.59
78859;BMP280;68210;52.032;4.634;2023-12-20T09:30:05;101295.56;;;9.54
78859;BMP280;68210;52.032;4.634;2023-12-20T09:32:05;101293.59;;;9.63
78859;BMP280;68210;52.032;4.634;2023-12-20T09:34:06;101287.50;;;9.66
78859;BMP280;68210;52.032;4.634;2023-12-20T09:36:06;101299.50;;;9.76
78859;BMP280;68210;52.032;4.634;2023-12-20T09:38:06;101298.25;;;9.74
78859;BMP280;68210;52.032;4.634;2023-12-20T09:40:10;101296.53;;;9.69
78859;BMP280;68210;52.032;4.634;2023-12-20T09:42:15;101299.59;;;9.68
78859;BMP280;68210;52.032;4.634;2023-12-20T09:44:17;101287.91;;;9.76
78859;BMP280;68210;52.032;4.634;2023-12-20T09:46:21;101295.56;;;9.74
78859;BMP280;68210;52.032;4.634;2023-12-20T09:48:26;101295.88;;;9.72
78859;BMP280;68210;52.032;4.634;2023-12-20T09:50:27;101302.22;;;9.76
78859;BMP280;68210;52.032;4.634;2023-12-20T09:52:28;101315.56;;;9.81
78859;BMP280;68210;52.032;4.634;2023-12-20T09:54:29;101320.03;;;9.77
78859;BMP280;68210;52.032;4.634;2023-12-20T09:56:30;101305.97;;;9.84
78859;BMP280;68210;52.032;4.634;2023-12-20T09:58:30;101312.00;;;9.89
78859;BMP280;68210;52.032;4.634;2023-12-20T10:00:30;101308.03;;;9.87
78859;BMP280;68210;52.032;4.634;2023-12-20T10:02:31;101311.66;;;9.91
78859;BMP280;68210;52.032;4.634;2023-12-20T10:04:32;101304.78;;;9.93
78859;BMP280;68210;52.032;4.634;2023-12-20T10:06:32;101313.38;;;9.95
78859;BMP280;68210;52.032;4.634;2023-12-20T10:08:34;101315.91;;;10.00
78859;BMP280;68210;52.032;4.634;2023-12-20T10:10:34;101305.97;;;10.04
78859;BMP280;68210;52.032;4.634;2023-12-20T10:12:35;101309.06;;;10.14
78859;BMP280;68210;52.032;4.634;2023-12-20T10:14:35;101305.56;;;10.14
78859;BMP280;68210;52.032;4.634;2023-12-20T10:16:35;101317.19;;;10.14
78859;BMP280;68210;52.032;4.634;2023-12-20T10:18:36;101310.72;;;10.07
78859;BMP280;68210;52.032;4.634;2023-12-20T10:20:36;101315.69;;;10.05
78859;BMP280;68210;52.032;4.634;2023-12-20T10:22:37;101306.44;;;10.18
78859;BMP280;68210;52.032;4.634;2023-12-20T10:24:37;101308.72;;;10.16
78859;BMP280;68210;52.032;4.634;2023-12-20T10:26:37;101306.44;;;10.18
78859;BMP280;68210;52.032;4.634;2023-12-20T10:28:38;101309.63;;;10.20
78859;BMP280;68210;52.032;4.634;2023-12-20T10:30:39;101297.88;;;10.16
78859;BMP280;68210;52.032;4.634;2023-12-20T10:32:40;101313.47;;;10.19
78859;BMP280;68210;52.032;4.634;2023-12-20T10:34:40;101309.63;;;10.20
78859;BMP280;68210;52.032;4.634;2023-12-20T10:36:41;101304.88;;;10.17
78859;BMP280;68210;52.032;4.634;2023-12-20T10:38:42;101293.94;;;10.13
78859;BMP280;68210;52.032;4.634;2023-12-20T10:40:45;101312.44;;;10.11
78859;BMP280;68210;52.032;4.634;2023-12-20T10:42:46;101301.50;;;10.20
78859;BMP280;68210;52.032;4.634;2023-12-20T10:44:47;101308.38;;;10.17
78859;BMP280;68210;52.032;4.634;2023-12-20T10:46:48;101277.78;;;10.17
78859;BMP280;68210;52.032;4.634;2023-12-20T10:48:53;101286.59;;;10.14
78859;BMP280;68210;52.032;4.634;2023-12-20T10:50:55;101281.63;;;10.16
78859;BMP280;68210;52.032;4.634;2023-12-20T10:52:56;101280.50;;;10.17
78859;BMP280;68210;52.032;4.634;2023-12-20T10:54:56;101277.56;;;10.22
78859;BMP280;68210;52.032;4.634;2023-12-20T10:56:58;101280.28;;;10.22
78859;BMP280;68210;52.032;4.634;2023-12-20T10:59:02;101286.59;;;10.14
78859;BMP280;68210;52.032;4.634;2023-12-20T11:01:04;101268.75;;;10.13
78859;BMP280;68210;52.032;4.634;2023-12-20T11:03:08;101271.13;;;10.26
78859;BMP280;68210;52.032;4.634;2023-12-20T11:07:37;101272.28;;;10.25
78859;BMP280;68210;52.032;4.634;2023-12-20T11:09:45;101270.03;;;10.27
78859;BMP280;68210;52.032;4.634;2023-12-20T11:14:03;101273.78;;;10.46
78859;BMP280;68210;52.032;4.634;2023-12-20T11:16:04;101256.16;;;10.40
78859;BMP280;68210;52.032;4.634;2023-12-20T11:18:05;101260.66;;;10.36
78859;BMP280;68210;52.032;4.634;2023-12-20T11:20:07;101255.81;;;10.42
78859;BMP280;68210;52.032;4.634;2023-12-20T11:22:10;101246.22;;;10.32
78859;BMP280;68210;52.032;4.634;2023-12-20T11:24:11;101252.31;;;10.41
78859;BMP280;68210;52.032;4.634;2023-12-20T11:26:15;101252.50;;;10.25
78859;BMP280;68210;52.032;4.634;2023-12-20T11:28:20;101252.97;;;10.38
78859;BMP280;68210;52.032;4.634;2023-12-20T11:30:21;101255.22;;;10.36
78859;BMP280;68210;52.032;4.634;2023-12-20T11:34:27;101237.41;;;10.35
78859;BMP280;68210;52.032;4.634;2023-12-20T11:36:32;101229.72;;;10.37
78859;BMP280;68210;52.032;4.634;2023-12-20T11:38:38;101226.66;;;10.39
78859;BMP280;68210;52.032;4.634;2023-12-20T11:40:41;101228.69;;;10.42